Dunkirk, Maryland
Current Conditions -  °F | °C
As of 9:55 AM on Monday 22 Dec 2014 (Local Time) from KADW Reporting Station
Drizzle Drizzle  
Wind Chill: 28°   Ceiling: 4000
Heat Index: 33°   Visibility: 10mi
Dew Point: 28°   Wind: 6mph
Humidity: 80%   Direction: 70°ENE
Pressure: 30.29"   Gusts: NA
Location:  38.72°N, 76.66°W
Report Text: KADW 221455Z 07005KT 10SM -DZ OVC040 01/M02 A3029 RMK AO2A SLP264 P0000 60000 T00071024 53005
Loading
Personal Weather Stations






























Interactive Weather Map New forecast layout! Learn more

10-Day Weather Forecast

Advertisements
Track Severe Weather on mobile